Terminal Aerodrome Forecast
Issued by NWS

Home | Current Version | Previous Version | Text Only | Print | Product List | Glossary Off
Versions: 1 2 3 4 5 6 7 8 9 10 11 12 13 14 15 16 17 18 19 20 21 22

000
FTUS43 KICT 010500
TAFSLN
TAF
KSLN 010527Z 0106/0206 VRB05KT P6SM VCTS BKN060CB
      TEMPO 0106/0108 VRB15G28KT 3SM TSRA FEW025 BKN050CB
     FM010900 17009KT P6SM BKN060
     FM011500 18011KT P6SM SCT060
     FM012200 17010KT P6SM VCTS BKN060CB=

USA.gov is the U.S. government's official web portal to all federal, state and local government web resources and services.